sensor_id;sensor_type;location;lat;lon;timestamp;pressure;altitude;pressure_sealevel;temperature;humidity
13869;BME280;7004;48.206;16.402;2023-07-31T00:00:40;99596.22;;;20.92;68.57
13869;BME280;7004;48.206;16.402;2023-07-31T00:03:06;99596.41;;;21.07;70.58
13869;BME280;7004;48.206;16.402;2023-07-31T00:05:33;99600.06;;;20.73;70.60
13869;BME280;7004;48.206;16.402;2023-07-31T00:07:59;99596.72;;;21.21;69.08
13869;BME280;7004;48.206;16.402;2023-07-31T00:10:25;99600.06;;;20.98;68.92
13869;BME280;7004;48.206;16.402;2023-07-31T00:12:51;99593.19;;;20.95;67.71
13869;BME280;7004;48.206;16.402;2023-07-31T00:15:17;99601.44;;;21.10;69.32
13869;BME280;7004;48.206;16.402;2023-07-31T00:17:44;99598.75;;;20.94;69.00
13869;BME280;7004;48.206;16.402;2023-07-31T00:20:10;99601.09;;;20.89;68.13
13869;BME280;7004;48.206;16.402;2023-07-31T00:22:37;99593.19;;;20.79;68.79
13869;BME280;7004;48.206;16.402;2023-07-31T00:25:03;99599.03;;;20.66;70.49
13869;BME280;7004;48.206;16.402;2023-07-31T00:27:30;99597.22;;;20.83;70.97
13869;BME280;7004;48.206;16.402;2023-07-31T00:29:56;99605.41;;;20.57;70.47
13869;BME280;7004;48.206;16.402;2023-07-31T00:32:22;99606.13;;;21.08;70.63
13869;BME280;7004;48.206;16.402;2023-07-31T00:34:48;99604.63;;;21.06;67.83
13869;BME280;7004;48.206;16.402;2023-07-31T00:37:14;99605.41;;;20.57;69.17
13869;BME280;7004;48.206;16.402;2023-07-31T00:39:41;99598.41;;;20.81;66.43
13869;BME280;7004;48.206;16.402;2023-07-31T00:42:07;99595.06;;;20.36;68.43
13869;BME280;7004;48.206;16.402;2023-07-31T00:44:33;99589.66;;;20.87;66.96
13869;BME280;7004;48.206;16.402;2023-07-31T00:47:02;99584.63;;;21.00;68.89
13869;BME280;7004;48.206;16.402;2023-07-31T00:49:28;99586.66;;;20.90;68.50
13869;BME280;7004;48.206;16.402;2023-07-31T00:51:54;99596.06;;;20.86;67.42
13869;BME280;7004;48.206;16.402;2023-07-31T00:54:23;99597.22;;;20.83;66.63
13869;BME280;7004;48.206;16.402;2023-07-31T00:56:50;99602.13;;;21.04;65.87
13869;BME280;7004;48.206;16.402;2023-07-31T00:59:19;99604.41;;;20.58;65.75
13869;BME280;7004;48.206;16.402;2023-07-31T01:01:45;99597.03;;;20.68;64.00
13869;BME280;7004;48.206;16.402;2023-07-31T01:04:12;99594.03;;;20.88;65.47
13869;BME280;7004;48.206;16.402;2023-07-31T01:09:48;99594.06;;;20.96;64.97
13869;BME280;7004;48.206;16.402;2023-07-31T01:12:20;99602.09;;;20.80;64.39
13869;BME280;7004;48.206;16.402;2023-07-31T01:15:02;99598.06;;;20.84;65.75
13869;BME280;7004;48.206;16.402;2023-07-31T01:17:28;99590.84;;;20.76;66.76
13869;BME280;7004;48.206;16.402;2023-07-31T01:19:57;99601.56;;;20.68;64.96
13869;BME280;7004;48.206;16.402;2023-07-31T01:25:31;99592.00;;;20.65;66.37
13869;BME280;7004;48.206;16.402;2023-07-31T01:28:08;99596.03;;;20.78;66.65
13869;BME280;7004;48.206;16.402;2023-07-31T01:30:43;99594.03;;;20.80;66.55
13869;BME280;7004;48.206;16.402;2023-07-31T01:33:10;99596.22;;;20.92;65.43
13869;BME280;7004;48.206;16.402;2023-07-31T01:35:38;99592.66;;;20.67;67.23
13869;BME280;7004;48.206;16.402;2023-07-31T01:38:05;99597.06;;;20.85;67.98
13869;BME280;7004;48.206;16.402;2023-07-31T01:40:31;99597.06;;;21.01;69.59
13869;BME280;7004;48.206;16.402;2023-07-31T01:42:57;99593.88;;;20.98;63.64
13869;BME280;7004;48.206;16.402;2023-07-31T01:45:23;99594.88;;;20.97;66.11
13869;BME280;7004;48.206;16.402;2023-07-31T01:47:49;99600.41;;;20.95;68.53
13869;BME280;7004;48.206;16.402;2023-07-31T01:50:15;99601.88;;;20.65;67.53
13869;BME280;7004;48.206;16.402;2023-07-31T01:52:41;99607.66;;;20.36;69.54
13869;BME280;7004;48.206;16.402;2023-07-31T01:55:08;99595.19;;;20.77;67.84
13869;BME280;7004;48.206;16.402;2023-07-31T01:57:36;99605.47;;;20.31;71.96
13869;BME280;7004;48.206;16.402;2023-07-31T02:00:03;99611.97;;;20.55;71.73
13869;BME280;7004;48.206;16.402;2023-07-31T02:02:29;99612.47;;;20.66;68.21
13869;BME280;7004;48.206;16.402;2023-07-31T02:04:55;99612.78;;;20.55;70.37
13869;BME280;7004;48.206;16.402;2023-07-31T02:07:21;99612.13;;;20.69;68.64
13869;BME280;7004;48.206;16.402;2023-07-31T02:09:47;99607.97;;;20.83;66.28
13869;BME280;7004;48.206;16.402;2023-07-31T02:12:13;99612.88;;;21.04;69.01
13869;BME280;7004;48.206;16.402;2023-07-31T02:14:41;99613.66;;;20.72;69.10
13869;BME280;7004;48.206;16.402;2023-07-31T02:17:08;99613.16;;;20.68;66.16
13869;BME280;7004;48.206;16.402;2023-07-31T02:19:35;99625.91;;;20.75;66.76
13869;BME280;7004;48.206;16.402;2023-07-31T02:22:01;99626.91;;;20.65;66.17
13869;BME280;7004;48.206;16.402;2023-07-31T02:24:28;99629.47;;;20.33;67.39
13869;BME280;7004;48.206;16.402;2023-07-31T02:26:54;99631.19;;;20.42;67.21
13869;BME280;7004;48.206;16.402;2023-07-31T02:29:20;99628.25;;;20.69;67.01
13869;BME280;7004;48.206;16.402;2023-07-31T02:31:46;99622.09;;;21.02;68.55
13869;BME280;7004;48.206;16.402;2023-07-31T02:34:13;99632.09;;;20.67;69.65
13869;BME280;7004;48.206;16.402;2023-07-31T02:36:39;99628.09;;;20.63;66.48
13869;BME280;7004;48.206;16.402;2023-07-31T02:39:05;99632.44;;;20.72;68.53
13869;BME280;7004;48.206;16.402;2023-07-31T02:41:31;99632.44;;;20.72;67.72
13869;BME280;7004;48.206;16.402;2023-07-31T02:43:57;99625.28;;;21.13;65.54
13869;BME280;7004;48.206;16.402;2023-07-31T02:46:23;99631.22;;;20.50;67.68
13869;BME280;7004;48.206;16.402;2023-07-31T02:48:50;99633.59;;;20.61;67.05
13869;BME280;7004;48.206;16.402;2023-07-31T02:51:17;99637.34;;;20.77;67.59
13869;BME280;7004;48.206;16.402;2023-07-31T02:53:43;99634.50;;;21.11;68.20
13869;BME280;7004;48.206;16.402;2023-07-31T02:56:09;99636.13;;;20.55;67.97
13869;BME280;7004;48.206;16.402;2023-07-31T02:58:35;99638.00;;;20.70;67.72
13869;BME280;7004;48.206;16.402;2023-07-31T03:01:01;99631.94;;;20.68;67.86
13869;BME280;7004;48.206;16.402;2023-07-31T03:03:27;99634.31;;;20.88;68.64
13869;BME280;7004;48.206;16.402;2023-07-31T03:05:53;99638.88;;;20.37;68.42
13869;BME280;7004;48.206;16.402;2023-07-31T03:08:20;99642.16;;;20.57;67.85
13869;BME280;7004;48.206;16.402;2023-07-31T03:10:46;99648.00;;;20.52;66.96
13869;BME280;7004;48.206;16.402;2023-07-31T03:13:12;99646.13;;;20.44;68.58
13869;BME280;7004;48.206;16.402;2023-07-31T03:15:38;99652.00;;;20.48;66.29
13869;BME280;7004;48.206;16.402;2023-07-31T03:18:07;99653.91;;;20.21;68.68
13869;BME280;7004;48.206;16.402;2023-07-31T03:20:34;99650.47;;;20.37;67.68
13869;BME280;7004;48.206;16.402;2023-07-31T03:23:00;99649.09;;;20.76;67.99
13869;BME280;7004;48.206;16.402;2023-07-31T03:25:26;99652.88;;;20.57;68.61
13869;BME280;7004;48.206;16.402;2023-07-31T03:27:52;99656.59;;;20.64;69.68
13869;BME280;7004;48.206;16.402;2023-07-31T03:30:18;99650.38;;;20.55;68.70
13869;BME280;7004;48.206;16.402;2023-07-31T03:32:44;99653.38;;;20.52;67.83
13869;BME280;7004;48.206;16.402;2023-07-31T03:35:10;99659.00;;;20.33;67.85
13869;BME280;7004;48.206;16.402;2023-07-31T03:37:36;99659.28;;;20.64;68.47
13869;BME280;7004;48.206;16.402;2023-07-31T03:40:04;99660.31;;;20.28;69.78
13869;BME280;7004;48.206;16.402;2023-07-31T03:42:31;99655.97;;;20.36;70.43
13869;BME280;7004;48.206;16.402;2023-07-31T03:44:57;99655.34;;;20.42;70.52
13869;BME280;7004;48.206;16.402;2023-07-31T03:47:23;99657.06;;;20.17;71.27
13869;BME280;7004;48.206;16.402;2023-07-31T03:49:49;99660.19;;;20.38;70.73
13869;BME280;7004;48.206;16.402;2023-07-31T03:52:15;99663.75;;;20.47;69.33
13869;BME280;7004;48.206;16.402;2023-07-31T03:54:41;99656.59;;;20.56;69.24
13869;BME280;7004;48.206;16.402;2023-07-31T03:57:10;99672.78;;;20.46;70.27
13869;BME280;7004;48.206;16.402;2023-07-31T03:59:37;99669.59;;;20.42;70.20
13869;BME280;7004;48.206;16.402;2023-07-31T04:02:05;99677.69;;;20.50;72.03
13869;BME280;7004;48.206;16.402;2023-07-31T04:04:31;99665.63;;;21.30;71.37
13869;BME280;7004;48.206;16.402;2023-07-31T04:06:57;99670.63;;;21.90;68.35
13869;BME280;7004;48.206;16.402;2023-07-31T04:09:23;99666.13;;;21.25;70.00
13869;BME280;7004;48.206;16.402;2023-07-31T04:11:49;99665.44;;;21.23;69.03
13869;BME280;7004;48.206;16.402;2023-07-31T04:14:15;99665.13;;;21.43;67.46
13869;BME280;7004;48.206;16.402;2023-07-31T04:16:41;99658.03;;;21.74;66.79
13869;BME280;7004;48.206;16.402;2023-07-31T04:19:07;99666.44;;;21.63;66.61
13869;BME280;7004;48.206;16.402;2023-07-31T04:21:33;99664.72;;;21.95;66.81
13869;BME280;7004;48.206;16.402;2023-07-31T04:23:59;99659.22;;;21.72;66.75
13869;BME280;7004;48.206;16.402;2023-07-31T04:26:25;99646.97;;;21.12;67.87
13869;BME280;7004;48.206;16.402;2023-07-31T04:28:52;99643.81;;;22.13;65.35
13869;BME280;7004;48.206;16.402;2023-07-31T04:31:17;99643.41;;;21.03;68.45
13869;BME280;7004;48.206;16.402;2023-07-31T04:33:44;99643.75;;;20.84;70.14
13869;BME280;7004;48.206;16.402;2023-07-31T04:36:10;99640.97;;;22.07;65.94
13869;BME280;7004;48.206;16.402;2023-07-31T04:38:36;99644.78;;;21.65;66.87
13869;BME280;7004;48.206;16.402;2023-07-31T04:41:02;99640.91;;;21.26;68.63
13869;BME280;7004;48.206;16.402;2023-07-31T04:43:28;99647.31;;;21.25;66.85
13869;BME280;7004;48.206;16.402;2023-07-31T04:45:54;99632.84;;;20.93;67.66
13869;BME280;7004;48.206;16.402;2023-07-31T04:48:20;99646.41;;;21.74;65.44
13869;BME280;7004;48.206;16.402;2023-07-31T04:50:47;99657.88;;;21.02;65.98
13869;BME280;7004;48.206;16.402;2023-07-31T04:53:13;99652.84;;;21.56;65.25
13869;BME280;7004;48.206;16.402;2023-07-31T04:55:39;99648.13;;;21.17;66.23
13869;BME280;7004;48.206;16.402;2023-07-31T04:58:05;99654.81;;;20.89;66.68
13869;BME280;7004;48.206;16.402;2023-07-31T05:00:31;99650.97;;;21.24;65.31
13869;BME280;7004;48.206;16.402;2023-07-31T05:02:57;99656.03;;;21.60;64.60
13869;BME280;7004;48.206;16.402;2023-07-31T05:05:23;99653.81;;;20.90;66.37
13869;BME280;7004;48.206;16.402;2023-07-31T05:07:49;99660.34;;;20.87;66.37
13869;BME280;7004;48.206;16.402;2023-07-31T05:10:15;99662.06;;;21.78;63.53
13869;BME280;7004;48.206;16.402;2023-07-31T05:12:41;99664.50;;;22.04;63.30
13869;BME280;7004;48.206;16.402;2023-07-31T05:15:08;99667.03;;;22.06;61.72
13869;BME280;7004;48.206;16.402;2023-07-31T05:17:35;99665.47;;;21.64;62.58
13869;BME280;7004;48.206;16.402;2023-07-31T05:20:01;99661.72;;;21.81;62.47
13869;BME280;7004;48.206;16.402;2023-07-31T05:22:28;99674.19;;;21.74;62.69
13869;BME280;7004;48.206;16.402;2023-07-31T05:24:54;99674.53;;;21.47;61.97
13869;BME280;7004;48.206;16.402;2023-07-31T05:27:23;99669.47;;;21.27;60.91
13869;BME280;7004;48.206;16.402;2023-07-31T05:29:49;99678.75;;;21.49;60.34
13869;BME280;7004;48.206;16.402;2023-07-31T05:32:15;99682.59;;;21.47;59.64
13869;BME280;7004;48.206;16.402;2023-07-31T05:34:41;99691.00;;;21.85;59.77
13869;BME280;7004;48.206;16.402;2023-07-31T05:37:10;99687.28;;;21.77;59.36
13869;BME280;7004;48.206;16.402;2023-07-31T05:39:37;99685.41;;;21.94;58.75
13869;BME280;7004;48.206;16.402;2023-07-31T05:42:04;99685.63;;;21.60;59.21
13869;BME280;7004;48.206;16.402;2023-07-31T05:44:34;99682.06;;;21.35;59.82
13869;BME280;7004;48.206;16.402;2023-07-31T05:47:03;99687.25;;;21.94;58.78
13869;BME280;7004;48.206;16.402;2023-07-31T05:49:29;99685.97;;;22.37;57.93
13869;BME280;7004;48.206;16.402;2023-07-31T05:51:55;99688.28;;;21.76;59.41
13869;BME280;7004;48.206;16.402;2023-07-31T05:54:21;99690.28;;;21.99;59.64
13869;BME280;7004;48.206;16.402;2023-07-31T05:56:48;99686.53;;;22.64;58.43
13869;BME280;7004;48.206;16.402;2023-07-31T05:59:14;99684.19;;;22.13;57.50
13869;BME280;7004;48.206;16.402;2023-07-31T06:01:40;99686.94;;;21.80;57.80
13869;BME280;7004;48.206;16.402;2023-07-31T06:04:06;99681.03;;;21.93;56.54
13869;BME280;7004;48.206;16.402;2023-07-31T06:06:32;99697.22;;;21.60;56.37
13869;BME280;7004;48.206;16.402;2023-07-31T06:08:58;99686.41;;;21.93;55.87
13869;BME280;7004;48.206;16.402;2023-07-31T06:11:24;99683.00;;;22.16;54.17
13869;BME280;7004;48.206;16.402;2023-07-31T06:13:50;99688.03;;;22.66;53.91
13869;BME280;7004;48.206;16.402;2023-07-31T06:16:16;99683.31;;;22.13;54.97
13869;BME280;7004;48.206;16.402;2023-07-31T06:18:42;99686.78;;;21.74;55.40
13869;BME280;7004;48.206;16.402;2023-07-31T06:21:10;99682.72;;;22.02;54.96
13869;BME280;7004;48.206;16.402;2023-07-31T06:23:36;99687.28;;;22.50;54.82
13869;BME280;7004;48.206;16.402;2023-07-31T06:26:02;99691.84;;;21.69;54.92
13869;BME280;7004;48.206;16.402;2023-07-31T06:28:30;99689.44;;;22.54;54.26
13869;BME280;7004;48.206;16.402;2023-07-31T06:30:57;99686.03;;;22.29;54.68
13869;BME280;7004;48.206;16.402;2023-07-31T06:33:24;99684.19;;;22.61;54.35
13869;BME280;7004;48.206;16.402;2023-07-31T06:35:50;99679.81;;;22.20;54.83
13869;BME280;7004;48.206;16.402;2023-07-31T06:38:22;99673.50;;;22.76;53.09
13869;BME280;7004;48.206;16.402;2023-07-31T06:40:49;99676.25;;;23.45;51.18
13869;BME280;7004;48.206;16.402;2023-07-31T06:43:15;99688.78;;;22.52;52.66
13869;BME280;7004;48.206;16.402;2023-07-31T06:45:41;99678.91;;;22.44;53.21
13869;BME280;7004;48.206;16.402;2023-07-31T06:48:07;99679.75;;;22.37;53.28
13869;BME280;7004;48.206;16.402;2023-07-31T06:50:33;99677.13;;;22.60;52.64
13869;BME280;7004;48.206;16.402;2023-07-31T06:52:59;99677.84;;;23.54;51.13
13869;BME280;7004;48.206;16.402;2023-07-31T06:55:26;99668.44;;;23.50;49.08
13869;BME280;7004;48.206;16.402;2023-07-31T06:57:54;99675.00;;;24.08;48.14
13869;BME280;7004;48.206;16.402;2023-07-31T07:00:22;99680.84;;;23.82;45.96
13869;BME280;7004;48.206;16.402;2023-07-31T07:02:49;99674.16;;;24.08;45.84
13869;BME280;7004;48.206;16.402;2023-07-31T07:05:16;99673.09;;;23.94;45.29
13869;BME280;7004;48.206;16.402;2023-07-31T07:07:44;99673.28;;;23.77;45.87
13869;BME280;7004;48.206;16.402;2023-07-31T07:10:11;99676.13;;;24.80;46.30
13869;BME280;7004;48.206;16.402;2023-07-31T07:12:38;99674.06;;;24.31;43.27
13869;BME280;7004;48.206;16.402;2023-07-31T07:15:05;99663.78;;;25.14;43.03
13869;BME280;7004;48.206;16.402;2023-07-31T07:17:31;99669.28;;;24.99;41.46
13869;BME280;7004;48.206;16.402;2023-07-31T07:19:58;99665.13;;;25.03;40.69
13869;BME280;7004;48.206;16.402;2023-07-31T07:22:25;99662.53;;;25.31;39.20
13869;BME280;7004;48.206;16.402;2023-07-31T07:24:53;99656.63;;;25.42;40.65
13869;BME280;7004;48.206;16.402;2023-07-31T07:27:19;99662.91;;;25.06;39.87
13869;BME280;7004;48.206;16.402;2023-07-31T07:29:46;99661.63;;;25.24;38.67
13869;BME280;7004;48.206;16.402;2023-07-31T07:32:12;99656.91;;;25.11;38.63
13869;BME280;7004;48.206;16.402;2023-07-31T07:34:39;99653.72;;;26.00;38.05
13869;BME280;7004;48.206;16.402;2023-07-31T07:37:05;99651.13;;;25.85;39.20
13869;BME280;7004;48.206;16.402;2023-07-31T07:39:32;99652.69;;;25.45;38.61
13869;BME280;7004;48.206;16.402;2023-07-31T07:41:58;99642.19;;;25.35;39.30
13869;BME280;7004;48.206;16.402;2023-07-31T07:44:24;99668.75;;;24.52;38.46
13869;BME280;7004;48.206;16.402;2023-07-31T07:46:50;99656.16;;;24.96;38.29
13869;BME280;7004;48.206;16.402;2023-07-31T07:49:21;99648.19;;;25.31;36.72
13869;BME280;7004;48.206;16.402;2023-07-31T07:51:49;99644.44;;;25.32;37.47
13869;BME280;7004;48.206;16.402;2023-07-31T07:54:16;99660.91;;;24.94;37.82
13869;BME280;7004;48.206;16.402;2023-07-31T07:56:47;99651.50;;;25.54;36.71
13869;BME280;7004;48.206;16.402;2023-07-31T07:59:13;99652.50;;;24.67;38.72
13869;BME280;7004;48.206;16.402;2023-07-31T08:01:39;99642.44;;;25.97;36.46
13869;BME280;7004;48.206;16.402;2023-07-31T08:04:06;99654.78;;;25.06;36.72
13869;BME280;7004;48.206;16.402;2023-07-31T08:06:32;99658.31;;;24.85;37.74
13869;BME280;7004;48.206;16.402;2023-07-31T08:08:59;99654.69;;;25.64;37.47
13869;BME280;7004;48.206;16.402;2023-07-31T08:11:25;99653.66;;;25.37;36.38
13869;BME280;7004;48.206;16.402;2023-07-31T08:13:51;99648.81;;;25.33;36.73
13869;BME280;7004;48.206;16.402;2023-07-31T08:16:17;99649.66;;;26.18;36.50
13869;BME280;7004;48.206;16.402;2023-07-31T08:18:43;99639.97;;;26.02;36.99
13869;BME280;7004;48.206;16.402;2023-07-31T08:21:09;99653.38;;;25.54;37.65
13869;BME280;7004;48.206;16.402;2023-07-31T08:23:35;99655.63;;;26.06;37.90
13869;BME280;7004;48.206;16.402;2023-07-31T08:26:01;99651.06;;;25.50;37.49
13869;BME280;7004;48.206;16.402;2023-07-31T08:28:27;99649.03;;;25.59;37.29
13869;BME280;7004;48.206;16.402;2023-07-31T08:30:53;99652.41;;;25.68;37.08
13869;BME280;7004;48.206;16.402;2023-07-31T08:33:19;99650.81;;;25.74;36.55
13869;BME280;7004;48.206;16.402;2023-07-31T08:35:45;99641.13;;;26.21;36.67
13869;BME280;7004;48.206;16.402;2023-07-31T08:38:12;99652.16;;;24.55;39.19
13869;BME280;7004;48.206;16.402;2023-07-31T08:40:38;99633.94;;;25.71;36.85
13869;BME280;7004;48.206;16.402;2023-07-31T08:43:04;99626.19;;;26.99;35.82
13869;BME280;7004;48.206;16.402;2023-07-31T08:45:31;99625.56;;;27.91;34.44
13869;BME280;7004;48.206;16.402;2023-07-31T08:47:59;99628.84;;;28.71;32.89
13869;BME280;7004;48.206;16.402;2023-07-31T08:50:25;99635.78;;;28.08;35.17
13869;BME280;7004;48.206;16.402;2023-07-31T08:52:51;99640.66;;;27.40;33.24
13869;BME280;7004;48.206;16.402;2023-07-31T08:55:18;99635.13;;;26.80;32.09
13869;BME280;7004;48.206;16.402;2023-07-31T08:57:52;99624.56;;;27.25;34.22
13869;BME280;7004;48.206;16.402;2023-07-31T09:00:20;99631.00;;;27.91;32.93
13869;BME280;7004;48.206;16.402;2023-07-31T09:02:57;99630.41;;;27.62;34.60
13869;BME280;7004;48.206;16.402;2023-07-31T09:05:26;99626.66;;;27.56;33.95
13869;BME280;7004;48.206;16.402;2023-07-31T09:07:54;99630.66;;;26.11;34.83
13869;BME280;7004;48.206;16.402;2023-07-31T09:10:21;99619.50;;;27.02;33.30
13869;BME280;7004;48.206;16.402;2023-07-31T09:12:49;99610.50;;;28.01;32.75
13869;BME280;7004;48.206;16.402;2023-07-31T09:15:16;99613.22;;;28.01;32.00
13869;BME280;7004;48.206;16.402;2023-07-31T09:17:43;99609.91;;;27.86;32.61
13869;BME280;7004;48.206;16.402;2023-07-31T09:20:18;99605.78;;;27.50;33.71
13869;BME280;7004;48.206;16.402;2023-07-31T09:22:45;99610.09;;;26.98;36.18
13869;BME280;7004;48.206;16.402;2023-07-31T09:25:20;99618.88;;;27.13;34.23
13869;BME280;7004;48.206;16.402;2023-07-31T09:28:00;99624.97;;;27.29;34.54
13869;BME280;7004;48.206;16.402;2023-07-31T09:30:27;99620.13;;;26.97;34.86
13869;BME280;7004;48.206;16.402;2023-07-31T09:33:05;99621.25;;;27.30;33.29
13869;BME280;7004;48.206;16.402;2023-07-31T09:35:35;99620.38;;;27.62;34.50
13869;BME280;7004;48.206;16.402;2023-07-31T09:38:08;99625.38;;;27.92;32.72
13869;BME280;7004;48.206;16.402;2023-07-31T09:40:38;99610.94;;;26.85;33.46
13869;BME280;7004;48.206;16.402;2023-07-31T09:43:06;99616.13;;;28.65;33.26
13869;BME280;7004;48.206;16.402;2023-07-31T09:45:41;99617.72;;;28.27;32.32
13869;BME280;7004;48.206;16.402;2023-07-31T09:48:09;99601.09;;;28.56;32.85
13869;BME280;7004;48.206;16.402;2023-07-31T09:50:42;99606.41;;;27.65;32.97
13869;BME280;7004;48.206;16.402;2023-07-31T09:53:09;99605.31;;;27.80;32.95
13869;BME280;7004;48.206;16.402;2023-07-31T09:55:37;99606.53;;;26.84;33.26
13869;BME280;7004;48.206;16.402;2023-07-31T09:58:09;99600.13;;;27.18;34.14
13869;BME280;7004;48.206;16.402;2023-07-31T10:00:36;99596.47;;;26.58;34.64
13869;BME280;7004;48.206;16.402;2023-07-31T10:03:08;99596.50;;;26.71;35.89
13869;BME280;7004;48.206;16.402;2023-07-31T10:05:42;99598.66;;;27.69;33.55
13869;BME280;7004;48.206;16.402;2023-07-31T10:08:14;99587.38;;;27.52;32.42
13869;BME280;7004;48.206;16.402;2023-07-31T10:10:44;99578.63;;;29.05;31.57
13869;BME280;7004;48.206;16.402;2023-07-31T10:13:14;99578.75;;;28.02;32.45
13869;BME280;7004;48.206;16.402;2023-07-31T10:15:41;99589.22;;;28.82;32.23
13869;BME280;7004;48.206;16.402;2023-07-31T10:18:09;99588.63;;;27.76;32.61
13869;BME280;7004;48.206;16.402;2023-07-31T10:20:36;99587.59;;;28.36;33.92
13869;BME280;7004;48.206;16.402;2023-07-31T10:23:02;99578.78;;;27.75;32.37
13869;BME280;7004;48.206;16.402;2023-07-31T10:25:29;99579.66;;;27.49;32.57
13869;BME280;7004;48.206;16.402;2023-07-31T10:27:57;99574.16;;;27.96;33.47
13869;BME280;7004;48.206;16.402;2023-07-31T10:30:30;99568.47;;;28.10;31.97
13869;BME280;7004;48.206;16.402;2023-07-31T10:32:58;99556.47;;;28.31;33.73
13869;BME280;7004;48.206;16.402;2023-07-31T10:35:27;99561.44;;;28.41;32.63
13869;BME280;7004;48.206;16.402;2023-07-31T10:37:53;99564.03;;;27.11;33.54
13869;BME280;7004;48.206;16.402;2023-07-31T10:40:25;99555.81;;;27.84;33.14
13869;BME280;7004;48.206;16.402;2023-07-31T10:42:56;99545.38;;;28.71;32.23
13869;BME280;7004;48.206;16.402;2023-07-31T10:45:35;99535.94;;;27.97;31.03
13869;BME280;7004;48.206;16.402;2023-07-31T10:48:15;99537.19;;;27.95;32.23
13869;BME280;7004;48.206;16.402;2023-07-31T10:50:55;99529.44;;;29.50;30.38
13869;BME280;7004;48.206;16.402;2023-07-31T10:53:30;99528.00;;;28.97;32.78
13869;BME280;7004;48.206;16.402;2023-07-31T10:56:09;99526.47;;;29.77;31.23
13869;BME280;7004;48.206;16.402;2023-07-31T10:58:39;99529.44;;;27.98;31.94
13869;BME280;7004;48.206;16.402;2023-07-31T11:01:06;99529.00;;;28.01;31.23
13869;BME280;7004;48.206;16.402;2023-07-31T11:03:47;99515.72;;;29.20;30.68
13869;BME280;7004;48.206;16.402;2023-07-31T11:06:16;99510.44;;;29.44;30.17
13869;BME280;7004;48.206;16.402;2023-07-31T11:08:44;99504.78;;;29.64;28.90
13869;BME280;7004;48.206;16.402;2023-07-31T11:11:14;99505.81;;;29.44;30.08
13869;BME280;7004;48.206;16.402;2023-07-31T11:13:49;99500.84;;;29.41;30.23
13869;BME280;7004;48.206;16.402;2023-07-31T11:16:17;99506.59;;;28.83;30.98
13869;BME280;7004;48.206;16.402;2023-07-31T11:18:46;99511.78;;;28.84;29.95
13869;BME280;7004;48.206;16.402;2023-07-31T11:21:21;99507.31;;;27.95;30.36
13869;BME280;7004;48.206;16.402;2023-07-31T11:23:50;99487.97;;;28.55;29.45
13869;BME280;7004;48.206;16.402;2023-07-31T11:26:17;99492.59;;;30.03;29.16
13869;BME280;7004;48.206;16.402;2023-07-31T11:28:47;99485.41;;;29.35;30.28
13869;BME280;7004;48.206;16.402;2023-07-31T11:31:13;99483.53;;;29.72;30.46
13869;BME280;7004;48.206;16.402;2023-07-31T11:33:41;99484.63;;;29.03;29.89
13869;BME280;7004;48.206;16.402;2023-07-31T11:36:18;99481.78;;;29.78;28.91
13869;BME280;7004;48.206;16.402;2023-07-31T11:38:45;99469.69;;;29.37;28.41
13869;BME280;7004;48.206;16.402;2023-07-31T11:41:14;99477.03;;;29.55;28.85
13869;BME280;7004;48.206;16.402;2023-07-31T11:43:43;99460.31;;;30.48;28.01
13869;BME280;7004;48.206;16.402;2023-07-31T11:46:09;99478.06;;;30.81;27.74
13869;BME280;7004;48.206;16.402;2023-07-31T11:48:37;99463.28;;;29.50;28.45
13869;BME280;7004;48.206;16.402;2023-07-31T11:51:06;99459.47;;;29.14;30.52
13869;BME280;7004;48.206;16.402;2023-07-31T11:53:50;99453.63;;;29.29;30.83
13869;BME280;7004;48.206;16.402;2023-07-31T11:56:19;99453.63;;;30.33;29.57
13869;BME280;7004;48.206;16.402;2023-07-31T11:58:48;99452.44;;;29.06;29.98
13869;BME280;7004;48.206;16.402;2023-07-31T12:01:15;99446.78;;;29.63;28.89
13869;BME280;7004;48.206;16.402;2023-07-31T12:03:46;99438.16;;;30.57;28.56
13869;BME280;7004;48.206;16.402;2023-07-31T12:06:12;99439.28;;;29.22;29.90
13869;BME280;7004;48.206;16.402;2023-07-31T12:08:38;99442.59;;;28.80;28.22
13869;BME280;7004;48.206;16.402;2023-07-31T12:11:08;99445.25;;;29.12;27.24
13869;BME280;7004;48.206;16.402;2023-07-31T12:13:35;99433.00;;;29.58;27.88
13869;BME280;7004;48.206;16.402;2023-07-31T12:16:03;99419.53;;;29.81;27.28
13869;BME280;7004;48.206;16.402;2023-07-31T12:18:36;99427.53;;;29.21;27.80
13869;BME280;7004;48.206;16.402;2023-07-31T12:21:07;99420.16;;;29.28;28.42
13869;BME280;7004;48.206;16.402;2023-07-31T12:23:36;99418.94;;;28.56;28.59
13869;BME280;7004;48.206;16.402;2023-07-31T12:28:48;99403.19;;;29.81;27.95
13869;BME280;7004;48.206;16.402;2023-07-31T12:31:22;99400.19;;;30.55;27.42
13869;BME280;7004;48.206;16.402;2023-07-31T12:33:50;99395.41;;;30.93;27.88
13869;BME280;7004;48.206;16.402;2023-07-31T12:36:20;99388.13;;;30.51;28.20
13869;BME280;7004;48.206;16.402;2023-07-31T12:38:47;99390.97;;;30.80;27.45
13869;BME280;7004;48.206;16.402;2023-07-31T12:41:13;99397.09;;;31.46;26.79
13869;BME280;7004;48.206;16.402;2023-07-31T12:43:42;99386.94;;;30.59;26.67
13869;BME280;7004;48.206;16.402;2023-07-31T12:46:08;99375.22;;;31.58;25.67
13869;BME280;7004;48.206;16.402;2023-07-31T12:48:36;99381.13;;;29.71;26.12
13869;BME280;7004;48.206;16.402;2023-07-31T12:51:02;99387.66;;;29.82;27.05
13869;BME280;7004;48.206;16.402;2023-07-31T12:53:29;99369.25;;;29.29;28.01
13869;BME280;7004;48.206;16.402;2023-07-31T12:55:56;99368.91;;;30.04;26.70
13869;BME280;7004;48.206;16.402;2023-07-31T12:58:22;99358.31;;;30.38;25.06
13869;BME280;7004;48.206;16.402;2023-07-31T13:00:49;99364.66;;;30.08;25.11
13869;BME280;7004;48.206;16.402;2023-07-31T13:03:15;99353.16;;;30.06;26.15
13869;BME280;7004;48.206;16.402;2023-07-31T13:05:41;99354.91;;;30.89;25.54
13869;BME280;7004;48.206;16.402;2023-07-31T13:08:07;99355.75;;;30.66;26.06
13869;BME280;7004;48.206;16.402;2023-07-31T13:10:33;99359.78;;;31.11;26.28